sensor_id;sensor_type;location;lat;lon;timestamp;temperature;humidity
53748;DHT22;39655;53.210;5.768;2022-10-16T00:01:27;13.00;92.70
53748;DHT22;39655;53.210;5.768;2022-10-16T00:03:53;13.00;92.60
53748;DHT22;39655;53.210;5.768;2022-10-16T00:06:21;13.00;92.50
53748;DHT22;39655;53.210;5.768;2022-10-16T00:08:48;13.00;92.50
53748;DHT22;39655;53.210;5.768;2022-10-16T00:11:20;13.00;92.50
53748;DHT22;39655;53.210;5.768;2022-10-16T00:13:48;13.00;92.50
53748;DHT22;39655;53.210;5.768;2022-10-16T00:16:15;13.00;92.40
53748;DHT22;39655;53.210;5.768;2022-10-16T00:18:41;13.10;92.40
53748;DHT22;39655;53.210;5.768;2022-10-16T00:21:18;13.00;92.40
53748;DHT22;39655;53.210;5.768;2022-10-16T00:23:45;13.00;92.30
53748;DHT22;39655;53.210;5.768;2022-10-16T00:26:13;13.00;92.40
53748;DHT22;39655;53.210;5.768;2022-10-16T00:28:39;13.00;92.40
53748;DHT22;39655;53.210;5.768;2022-10-16T00:31:07;13.00;92.30
53748;DHT22;39655;53.210;5.768;2022-10-16T00:33:34;13.10;92.20
53748;DHT22;39655;53.210;5.768;2022-10-16T00:36:00;13.00;92.10
53748;DHT22;39655;53.210;5.768;2022-10-16T00:38:26;13.10;92.00
53748;DHT22;39655;53.210;5.768;2022-10-16T00:40:51;13.10;91.90
53748;DHT22;39655;53.210;5.768;2022-10-16T00:51:24;13.10;91.50
53748;DHT22;39655;53.210;5.768;2022-10-16T00:53:51;13.10;91.50
53748;DHT22;39655;53.210;5.768;2022-10-16T00:56:19;13.10;91.60
53748;DHT22;39655;53.210;5.768;2022-10-16T00:58:44;13.10;91.50
53748;DHT22;39655;53.210;5.768;2022-10-16T01:01:10;13.10;91.40
53748;DHT22;39655;53.210;5.768;2022-10-16T01:03:37;13.10;91.40
53748;DHT22;39655;53.210;5.768;2022-10-16T01:06:32;13.10;91.30
53748;DHT22;39655;53.210;5.768;2022-10-16T01:09:21;13.20;91.20
53748;DHT22;39655;53.210;5.768;2022-10-16T01:20:04;13.30;90.70
53748;DHT22;39655;53.210;5.768;2022-10-16T01:22:57;13.30;90.50
53748;DHT22;39655;53.210;5.768;2022-10-16T01:28:36;13.40;90.00
53748;DHT22;39655;53.210;5.768;2022-10-16T01:31:04;13.50;90.00
53748;DHT22;39655;53.210;5.768;2022-10-16T01:33:42;13.50;89.50
53748;DHT22;39655;53.210;5.768;2022-10-16T01:36:15;13.50;89.80
53748;DHT22;39655;53.210;5.768;2022-10-16T01:38:41;13.50;90.00
53748;DHT22;39655;53.210;5.768;2022-10-16T01:41:18;13.40;90.00
53748;DHT22;39655;53.210;5.768;2022-10-16T01:43:49;13.40;90.10
53748;DHT22;39655;53.210;5.768;2022-10-16T01:46:20;13.40;89.90
53748;DHT22;39655;53.210;5.768;2022-10-16T01:48:48;13.40;89.70
53748;DHT22;39655;53.210;5.768;2022-10-16T01:51:17;13.50;89.80
53748;DHT22;39655;53.210;5.768;2022-10-16T01:53:46;13.40;90.30
53748;DHT22;39655;53.210;5.768;2022-10-16T01:56:13;13.40;90.50
53748;DHT22;39655;53.210;5.768;2022-10-16T01:58:45;13.40;90.80
53748;DHT22;39655;53.210;5.768;2022-10-16T02:01:15;13.40;91.10
53748;DHT22;39655;53.210;5.768;2022-10-16T02:03:43;13.30;91.60
53748;DHT22;39655;53.210;5.768;2022-10-16T02:06:12;13.30;91.80
53748;DHT22;39655;53.210;5.768;2022-10-16T02:08:38;13.30;92.10
53748;DHT22;39655;53.210;5.768;2022-10-16T02:11:06;13.20;92.20
53748;DHT22;39655;53.210;5.768;2022-10-16T02:13:39;13.10;92.20
53748;DHT22;39655;53.210;5.768;2022-10-16T02:16:09;13.10;92.20
53748;DHT22;39655;53.210;5.768;2022-10-16T02:18:36;13.10;92.50
53748;DHT22;39655;53.210;5.768;2022-10-16T02:27:17;13.00;93.70
53748;DHT22;39655;53.210;5.768;2022-10-16T02:29:22;13.00;93.80
53748;DHT22;39655;53.210;5.768;2022-10-16T02:31:54;13.00;94.10
53748;DHT22;39655;53.210;5.768;2022-10-16T02:34:21;12.90;94.20
53748;DHT22;39655;53.210;5.768;2022-10-16T02:36:48;12.90;94.20
53748;DHT22;39655;53.210;5.768;2022-10-16T02:39:16;12.90;94.10
53748;DHT22;39655;53.210;5.768;2022-10-16T02:41:42;12.90;94.10
53748;DHT22;39655;53.210;5.768;2022-10-16T02:44:08;12.90;94.00
53748;DHT22;39655;53.210;5.768;2022-10-16T02:46:33;12.90;93.80
53748;DHT22;39655;53.210;5.768;2022-10-16T02:48:59;12.90;93.80
53748;DHT22;39655;53.210;5.768;2022-10-16T02:51:25;12.80;93.60
53748;DHT22;39655;53.210;5.768;2022-10-16T02:53:51;12.80;93.50
53748;DHT22;39655;53.210;5.768;2022-10-16T02:56:16;12.80;93.20
53748;DHT22;39655;53.210;5.768;2022-10-16T02:58:42;12.80;93.10
53748;DHT22;39655;53.210;5.768;2022-10-16T03:01:08;12.70;93.00
53748;DHT22;39655;53.210;5.768;2022-10-16T03:03:33;12.70;92.90
53748;DHT22;39655;53.210;5.768;2022-10-16T03:05:59;12.70;92.60
53748;DHT22;39655;53.210;5.768;2022-10-16T03:08:25;12.70;92.40
53748;DHT22;39655;53.210;5.768;2022-10-16T03:10:51;12.70;92.30
53748;DHT22;39655;53.210;5.768;2022-10-16T03:13:17;12.70;92.30
53748;DHT22;39655;53.210;5.768;2022-10-16T03:15:43;12.60;92.40
53748;DHT22;39655;53.210;5.768;2022-10-16T03:18:09;12.60;92.40
53748;DHT22;39655;53.210;5.768;2022-10-16T03:20:35;12.60;92.30
53748;DHT22;39655;53.210;5.768;2022-10-16T03:23:00;12.60;92.10
53748;DHT22;39655;53.210;5.768;2022-10-16T03:25:28;12.60;92.00
53748;DHT22;39655;53.210;5.768;2022-10-16T03:27:53;12.60;92.10
53748;DHT22;39655;53.210;5.768;2022-10-16T03:30:19;12.60;92.10
53748;DHT22;39655;53.210;5.768;2022-10-16T03:32:44;12.60;92.20
53748;DHT22;39655;53.210;5.768;2022-10-16T03:35:10;12.60;92.20
53748;DHT22;39655;53.210;5.768;2022-10-16T03:37:36;12.60;92.40
53748;DHT22;39655;53.210;5.768;2022-10-16T03:40:03;12.50;92.60
53748;DHT22;39655;53.210;5.768;2022-10-16T03:42:28;12.60;92.70
53748;DHT22;39655;53.210;5.768;2022-10-16T03:44:54;12.60;93.00
53748;DHT22;39655;53.210;5.768;2022-10-16T03:47:19;12.60;93.10
53748;DHT22;39655;53.210;5.768;2022-10-16T03:49:48;12.60;93.10
53748;DHT22;39655;53.210;5.768;2022-10-16T03:52:13;12.60;93.10
53748;DHT22;39655;53.210;5.768;2022-10-16T03:54:39;12.60;93.10
53748;DHT22;39655;53.210;5.768;2022-10-16T03:57:04;12.60;93.00
53748;DHT22;39655;53.210;5.768;2022-10-16T03:59:30;12.60;92.90
53748;DHT22;39655;53.210;5.768;2022-10-16T04:01:56;12.70;93.20
53748;DHT22;39655;53.210;5.768;2022-10-16T04:04:21;12.70;93.30
53748;DHT22;39655;53.210;5.768;2022-10-16T04:06:47;12.80;93.70
53748;DHT22;39655;53.210;5.768;2022-10-16T04:09:13;12.80;93.80
53748;DHT22;39655;53.210;5.768;2022-10-16T04:11:38;12.80;93.90
53748;DHT22;39655;53.210;5.768;2022-10-16T04:14:04;12.80;94.10
53748;DHT22;39655;53.210;5.768;2022-10-16T04:16:30;12.80;94.20
53748;DHT22;39655;53.210;5.768;2022-10-16T04:18:55;12.80;94.40
53748;DHT22;39655;53.210;5.768;2022-10-16T04:21:21;12.80;94.50
53748;DHT22;39655;53.210;5.768;2022-10-16T04:23:47;12.80;94.60
53748;DHT22;39655;53.210;5.768;2022-10-16T04:26:13;12.80;94.60
53748;DHT22;39655;53.210;5.768;2022-10-16T04:28:39;12.80;94.70
53748;DHT22;39655;53.210;5.768;2022-10-16T04:31:06;12.80;94.70
53748;DHT22;39655;53.210;5.768;2022-10-16T04:33:32;12.80;94.60
53748;DHT22;39655;53.210;5.768;2022-10-16T04:35:58;12.80;94.70
53748;DHT22;39655;53.210;5.768;2022-10-16T04:38:25;12.80;94.70
53748;DHT22;39655;53.210;5.768;2022-10-16T04:40:51;12.80;94.80
53748;DHT22;39655;53.210;5.768;2022-10-16T04:43:17;12.80;94.70
53748;DHT22;39655;53.210;5.768;2022-10-16T04:45:43;12.70;94.80
53748;DHT22;39655;53.210;5.768;2022-10-16T04:48:09;12.70;94.80
53748;DHT22;39655;53.210;5.768;2022-10-16T04:50:34;12.70;94.60
53748;DHT22;39655;53.210;5.768;2022-10-16T04:53:00;12.70;94.60
53748;DHT22;39655;53.210;5.768;2022-10-16T04:55:28;12.60;94.50
53748;DHT22;39655;53.210;5.768;2022-10-16T04:57:54;12.70;94.40
53748;DHT22;39655;53.210;5.768;2022-10-16T05:00:20;12.70;94.50
53748;DHT22;39655;53.210;5.768;2022-10-16T05:02:45;12.70;94.40
53748;DHT22;39655;53.210;5.768;2022-10-16T05:05:11;12.60;94.30
53748;DHT22;39655;53.210;5.768;2022-10-16T05:07:37;12.60;94.20
53748;DHT22;39655;53.210;5.768;2022-10-16T05:10:03;12.60;94.20
53748;DHT22;39655;53.210;5.768;2022-10-16T05:12:29;12.60;93.90
53748;DHT22;39655;53.210;5.768;2022-10-16T05:14:55;12.60;93.80
53748;DHT22;39655;53.210;5.768;2022-10-16T05:17:24;12.60;93.90
53748;DHT22;39655;53.210;5.768;2022-10-16T05:19:50;12.60;93.90
53748;DHT22;39655;53.210;5.768;2022-10-16T05:22:16;12.60;93.90
53748;DHT22;39655;53.210;5.768;2022-10-16T05:24:42;12.60;94.00
53748;DHT22;39655;53.210;5.768;2022-10-16T05:27:08;12.60;94.20
53748;DHT22;39655;53.210;5.768;2022-10-16T05:29:33;12.60;94.30
53748;DHT22;39655;53.210;5.768;2022-10-16T05:32:00;12.60;94.30
53748;DHT22;39655;53.210;5.768;2022-10-16T05:34:25;12.60;94.30
53748;DHT22;39655;53.210;5.768;2022-10-16T05:36:51;12.60;94.30
53748;DHT22;39655;53.210;5.768;2022-10-16T05:39:17;12.60;94.40
53748;DHT22;39655;53.210;5.768;2022-10-16T05:41:43;12.50;94.40
53748;DHT22;39655;53.210;5.768;2022-10-16T05:44:09;12.50;94.50
53748;DHT22;39655;53.210;5.768;2022-10-16T05:46:35;12.50;94.60
53748;DHT22;39655;53.210;5.768;2022-10-16T05:49:01;12.50;94.60
53748;DHT22;39655;53.210;5.768;2022-10-16T05:51:26;12.50;94.80
53748;DHT22;39655;53.210;5.768;2022-10-16T05:53:52;12.50;94.70
53748;DHT22;39655;53.210;5.768;2022-10-16T05:56:18;12.50;94.80
53748;DHT22;39655;53.210;5.768;2022-10-16T05:58:44;12.50;94.70
53748;DHT22;39655;53.210;5.768;2022-10-16T06:01:10;12.40;94.70
53748;DHT22;39655;53.210;5.768;2022-10-16T06:03:36;12.50;94.80
53748;DHT22;39655;53.210;5.768;2022-10-16T06:06:15;12.40;94.70
53748;DHT22;39655;53.210;5.768;2022-10-16T06:08:43;12.40;94.70
53748;DHT22;39655;53.210;5.768;2022-10-16T06:11:11;12.40;94.70
53748;DHT22;39655;53.210;5.768;2022-10-16T06:13:37;12.40;94.70
53748;DHT22;39655;53.210;5.768;2022-10-16T06:16:04;12.40;94.70
53748;DHT22;39655;53.210;5.768;2022-10-16T06:18:30;12.40;94.60
53748;DHT22;39655;53.210;5.768;2022-10-16T06:20:57;12.40;94.70
53748;DHT22;39655;53.210;5.768;2022-10-16T06:23:23;12.30;94.70
53748;DHT22;39655;53.210;5.768;2022-10-16T06:25:48;12.30;94.80
53748;DHT22;39655;53.210;5.768;2022-10-16T06:28:15;12.40;94.80
53748;DHT22;39655;53.210;5.768;2022-10-16T06:30:41;12.40;94.90
53748;DHT22;39655;53.210;5.768;2022-10-16T06:33:09;12.40;95.00
53748;DHT22;39655;53.210;5.768;2022-10-16T06:35:36;12.50;95.00
53748;DHT22;39655;53.210;5.768;2022-10-16T06:38:01;12.60;94.90
53748;DHT22;39655;53.210;5.768;2022-10-16T06:40:27;12.60;94.80
53748;DHT22;39655;53.210;5.768;2022-10-16T06:42:55;12.60;94.80
53748;DHT22;39655;53.210;5.768;2022-10-16T06:45:20;12.60;94.60
53748;DHT22;39655;53.210;5.768;2022-10-16T06:47:46;12.60;94.60
53748;DHT22;39655;53.210;5.768;2022-10-16T06:50:11;12.60;94.50
53748;DHT22;39655;53.210;5.768;2022-10-16T06:52:37;12.60;94.40
53748;DHT22;39655;53.210;5.768;2022-10-16T06:55:03;12.60;94.30
53748;DHT22;39655;53.210;5.768;2022-10-16T06:57:29;12.60;94.20
53748;DHT22;39655;53.210;5.768;2022-10-16T06:59:54;12.60;94.10
53748;DHT22;39655;53.210;5.768;2022-10-16T07:02:20;12.60;94.00
53748;DHT22;39655;53.210;5.768;2022-10-16T07:04:46;12.70;94.10
53748;DHT22;39655;53.210;5.768;2022-10-16T07:07:11;12.70;94.00
53748;DHT22;39655;53.210;5.768;2022-10-16T07:09:37;12.70;94.00
53748;DHT22;39655;53.210;5.768;2022-10-16T07:12:03;12.70;94.00
53748;DHT22;39655;53.210;5.768;2022-10-16T07:14:28;12.70;94.00
53748;DHT22;39655;53.210;5.768;2022-10-16T07:16:55;12.70;94.00
53748;DHT22;39655;53.210;5.768;2022-10-16T07:19:21;12.70;94.10
53748;DHT22;39655;53.210;5.768;2022-10-16T07:21:46;12.70;94.10
53748;DHT22;39655;53.210;5.768;2022-10-16T07:24:14;12.70;94.10
53748;DHT22;39655;53.210;5.768;2022-10-16T07:26:41;12.70;94.10
53748;DHT22;39655;53.210;5.768;2022-10-16T07:29:13;12.80;94.00
53748;DHT22;39655;53.210;5.768;2022-10-16T07:31:40;12.90;94.00
53748;DHT22;39655;53.210;5.768;2022-10-16T07:34:05;12.90;93.90
53748;DHT22;39655;53.210;5.768;2022-10-16T07:36:31;12.90;93.90
53748;DHT22;39655;53.210;5.768;2022-10-16T07:38:57;13.00;93.90
53748;DHT22;39655;53.210;5.768;2022-10-16T07:41:22;13.00;93.80
53748;DHT22;39655;53.210;5.768;2022-10-16T07:43:52;13.10;93.70
53748;DHT22;39655;53.210;5.768;2022-10-16T07:46:19;13.10;93.70
53748;DHT22;39655;53.210;5.768;2022-10-16T07:48:45;13.10;93.70
53748;DHT22;39655;53.210;5.768;2022-10-16T07:51:14;13.10;93.70
53748;DHT22;39655;53.210;5.768;2022-10-16T07:53:40;13.20;93.70
53748;DHT22;39655;53.210;5.768;2022-10-16T07:56:07;13.20;93.70
53748;DHT22;39655;53.210;5.768;2022-10-16T07:58:34;13.20;93.80
53748;DHT22;39655;53.210;5.768;2022-10-16T08:01:08;13.20;93.80
53748;DHT22;39655;53.210;5.768;2022-10-16T08:03:33;13.20;93.80
53748;DHT22;39655;53.210;5.768;2022-10-16T08:06:00;13.20;93.90
53748;DHT22;39655;53.210;5.768;2022-10-16T08:08:26;13.20;93.80
53748;DHT22;39655;53.210;5.768;2022-10-16T08:10:52;13.20;94.00
53748;DHT22;39655;53.210;5.768;2022-10-16T08:13:18;13.20;94.00
53748;DHT22;39655;53.210;5.768;2022-10-16T08:15:45;13.30;94.00
53748;DHT22;39655;53.210;5.768;2022-10-16T08:18:12;13.30;93.90
53748;DHT22;39655;53.210;5.768;2022-10-16T08:20:39;13.40;93.90
53748;DHT22;39655;53.210;5.768;2022-10-16T08:23:05;13.40;93.70
53748;DHT22;39655;53.210;5.768;2022-10-16T08:25:31;13.40;93.70
53748;DHT22;39655;53.210;5.768;2022-10-16T08:27:56;13.40;93.60
53748;DHT22;39655;53.210;5.768;2022-10-16T08:30:23;13.30;93.70
53748;DHT22;39655;53.210;5.768;2022-10-16T08:32:49;13.30;93.70
53748;DHT22;39655;53.210;5.768;2022-10-16T08:35:15;13.30;93.70
53748;DHT22;39655;53.210;5.768;2022-10-16T08:37:41;13.30;93.80
53748;DHT22;39655;53.210;5.768;2022-10-16T08:40:20;13.30;93.90
53748;DHT22;39655;53.210;5.768;2022-10-16T08:48:35;13.60;93.90
53748;DHT22;39655;53.210;5.768;2022-10-16T08:51:04;13.70;93.80
53748;DHT22;39655;53.210;5.768;2022-10-16T08:54:01;13.80;93.70
53748;DHT22;39655;53.210;5.768;2022-10-16T08:56:24;13.90;93.70
53748;DHT22;39655;53.210;5.768;2022-10-16T08:58:52;14.00;93.40
53748;DHT22;39655;53.210;5.768;2022-10-16T09:01:20;14.10;93.30
53748;DHT22;39655;53.210;5.768;2022-10-16T09:03:58;14.20;92.90
53748;DHT22;39655;53.210;5.768;2022-10-16T09:06:40;14.20;92.50
53748;DHT22;39655;53.210;5.768;2022-10-16T09:12:14;14.40;92.30
53748;DHT22;39655;53.210;5.768;2022-10-16T09:14:52;14.50;91.60
53748;DHT22;39655;53.210;5.768;2022-10-16T09:22:40;14.80;90.60
53748;DHT22;39655;53.210;5.768;2022-10-16T09:25:17;14.80;90.00
53748;DHT22;39655;53.210;5.768;2022-10-16T09:27:46;14.80;89.50
53748;DHT22;39655;53.210;5.768;2022-10-16T09:30:15;14.80;89.10
53748;DHT22;39655;53.210;5.768;2022-10-16T09:32:43;14.80;89.80
53748;DHT22;39655;53.210;5.768;2022-10-16T09:35:14;14.80;90.10
53748;DHT22;39655;53.210;5.768;2022-10-16T09:37:43;14.90;89.80
53748;DHT22;39655;53.210;5.768;2022-10-16T09:40:37;15.00;89.10
53748;DHT22;39655;53.210;5.768;2022-10-16T09:43:24;15.10;88.90
53748;DHT22;39655;53.210;5.768;2022-10-16T09:51:02;15.50;86.70
53748;DHT22;39655;53.210;5.768;2022-10-16T09:53:43;15.60;85.00
53748;DHT22;39655;53.210;5.768;2022-10-16T09:56:11;15.60;83.80
53748;DHT22;39655;53.210;5.768;2022-10-16T09:58:43;15.60;83.60
53748;DHT22;39655;53.210;5.768;2022-10-16T10:01:14;15.60;82.60
53748;DHT22;39655;53.210;5.768;2022-10-16T10:03:42;15.60;82.30
53748;DHT22;39655;53.210;5.768;2022-10-16T10:06:23;15.50;81.20
53748;DHT22;39655;53.210;5.768;2022-10-16T10:11:47;15.40;77.70
53748;DHT22;39655;53.210;5.768;2022-10-16T10:14:49;15.50;77.60
53748;DHT22;39655;53.210;5.768;2022-10-16T10:17:27;15.50;79.00
53748;DHT22;39655;53.210;5.768;2022-10-16T10:20:40;15.60;79.10
53748;DHT22;39655;53.210;5.768;2022-10-16T10:22:46;15.60;76.70
53748;DHT22;39655;53.210;5.768;2022-10-16T10:27:53;15.60;77.30
53748;DHT22;39655;53.210;5.768;2022-10-16T10:46:51;15.60;76.40
53748;DHT22;39655;53.210;5.768;2022-10-16T10:49:43;15.70;77.40
53748;DHT22;39655;53.210;5.768;2022-10-16T10:52:42;15.80;75.70
53748;DHT22;39655;53.210;5.768;2022-10-16T11:00:23;15.80;75.50
53748;DHT22;39655;53.210;5.768;2022-10-16T11:02:58;15.80;76.00
53748;DHT22;39655;53.210;5.768;2022-10-16T11:08:17;15.90;73.10
53748;DHT22;39655;53.210;5.768;2022-10-16T11:11:03;16.00;74.30
53748;DHT22;39655;53.210;5.768;2022-10-16T11:16:43;16.00;73.60
53748;DHT22;39655;53.210;5.768;2022-10-16T11:22:20;16.20;72.80
53748;DHT22;39655;53.210;5.768;2022-10-16T11:24:59;16.10;71.10
53748;DHT22;39655;53.210;5.768;2022-10-16T11:30:22;16.00;71.40
53748;DHT22;39655;53.210;5.768;2022-10-16T11:35:38;16.00;72.00
53748;DHT22;39655;53.210;5.768;2022-10-16T11:46:36;15.70;73.80
53748;DHT22;39655;53.210;5.768;2022-10-16T11:49:13;15.60;72.00
53748;DHT22;39655;53.210;5.768;2022-10-16T11:51:43;15.60;73.20
53748;DHT22;39655;53.210;5.768;2022-10-16T11:54:42;15.70;73.70
53748;DHT22;39655;53.210;5.768;2022-10-16T11:57:40;15.80;73.10
53748;DHT22;39655;53.210;5.768;2022-10-16T12:00:32;16.00;71.40
53748;DHT22;39655;53.210;5.768;2022-10-16T12:08:18;16.10;70.60
53748;DHT22;39655;53.210;5.768;2022-10-16T12:10:46;16.20;70.30
53748;DHT22;39655;53.210;5.768;2022-10-16T12:13:36;16.10;71.30
53748;DHT22;39655;53.210;5.768;2022-10-16T12:16:21;16.20;72.30
53748;DHT22;39655;53.210;5.768;2022-10-16T12:18:48;16.20;69.80
53748;DHT22;39655;53.210;5.768;2022-10-16T12:21:15;16.20;69.10
53748;DHT22;39655;53.210;5.768;2022-10-16T12:23:53;16.20;69.70
53748;DHT22;39655;53.210;5.768;2022-10-16T12:26:31;16.30;70.60
53748;DHT22;39655;53.210;5.768;2022-10-16T12:31:44;16.40;70.80
53748;DHT22;39655;53.210;5.768;2022-10-16T12:34:22;16.40;71.00
53748;DHT22;39655;53.210;5.768;2022-10-16T12:36:51;16.40;69.90
53748;DHT22;39655;53.210;5.768;2022-10-16T12:39:23;16.50;70.60
53748;DHT22;39655;53.210;5.768;2022-10-16T12:42:02;16.50;70.50
53748;DHT22;39655;53.210;5.768;2022-10-16T12:44:33;16.50;71.00
53748;DHT22;39655;53.210;5.768;2022-10-16T12:46:58;16.50;70.50
53748;DHT22;39655;53.210;5.768;2022-10-16T12:49:38;16.40;70.70
53748;DHT22;39655;53.210;5.768;2022-10-16T12:52:37;16.50;70.60
53748;DHT22;39655;53.210;5.768;2022-10-16T12:55:04;16.50;71.80
53748;DHT22;39655;53.210;5.768;2022-10-16T13:00:44;16.40;69.80
53748;DHT22;39655;53.210;5.768;2022-10-16T13:03:43;16.40;70.30
53748;DHT22;39655;53.210;5.768;2022-10-16T13:09:16;16.40;70.90
53748;DHT22;39655;53.210;5.768;2022-10-16T13:14:41;16.30;71.80
53748;DHT22;39655;53.210;5.768;2022-10-16T13:20:22;16.30;71.30
53748;DHT22;39655;53.210;5.768;2022-10-16T13:23:13;16.20;71.70
53748;DHT22;39655;53.210;5.768;2022-10-16T13:28:38;16.30;73.00
53748;DHT22;39655;53.210;5.768;2022-10-16T13:31:05;16.40;73.50
53748;DHT22;39655;53.210;5.768;2022-10-16T13:33:37;16.40;72.60
53748;DHT22;39655;53.210;5.768;2022-10-16T13:36:17;16.30;72.10
53748;DHT22;39655;53.210;5.768;2022-10-16T13:38:43;16.30;72.20
53748;DHT22;39655;53.210;5.768;2022-10-16T13:41:18;16.30;72.60
53748;DHT22;39655;53.210;5.768;2022-10-16T13:43:52;16.30;71.80
53748;DHT22;39655;53.210;5.768;2022-10-16T13:46:21;16.20;71.40
53748;DHT22;39655;53.210;5.768;2022-10-16T13:49:01;16.20;72.20
53748;DHT22;39655;53.210;5.768;2022-10-16T13:51:28;16.20;72.20
53748;DHT22;39655;53.210;5.768;2022-10-16T13:53:55;16.20;71.20
53748;DHT22;39655;53.210;5.768;2022-10-16T13:56:24;16.20;70.60
53748;DHT22;39655;53.210;5.768;2022-10-16T13:59:04;16.30;71.50
53748;DHT22;39655;53.210;5.768;2022-10-16T14:01:33;16.20;72.10
53748;DHT22;39655;53.210;5.768;2022-10-16T14:04:06;16.30;71.70
53748;DHT22;39655;53.210;5.768;2022-10-16T14:06:32;16.40;71.30
53748;DHT22;39655;53.210;5.768;2022-10-16T14:11:33;16.60;70.00
53748;DHT22;39655;53.210;5.768;2022-10-16T14:14:00;16.60;70.00
53748;DHT22;39655;53.210;5.768;2022-10-16T14:16:30;16.90;69.40
53748;DHT22;39655;53.210;5.768;2022-10-16T14:19:05;16.90;69.10
53748;DHT22;39655;53.210;5.768;2022-10-16T14:21:33;17.10;68.90
53748;DHT22;39655;53.210;5.768;2022-10-16T14:23:59;17.00;68.20
53748;DHT22;39655;53.210;5.768;2022-10-16T14:26:28;16.90;67.80
53748;DHT22;39655;53.210;5.768;2022-10-16T14:29:12;16.70;68.40
53748;DHT22;39655;53.210;5.768;2022-10-16T14:31:38;16.60;70.00
53748;DHT22;39655;53.210;5.768;2022-10-16T14:34:33;16.70;70.40
53748;DHT22;39655;53.210;5.768;2022-10-16T14:37:01;16.80;69.80
53748;DHT22;39655;53.210;5.768;2022-10-16T14:39:32;16.90;68.80
53748;DHT22;39655;53.210;5.768;2022-10-16T14:41:58;16.70;68.80
53748;DHT22;39655;53.210;5.768;2022-10-16T14:44:29;16.60;69.60
53748;DHT22;39655;53.210;5.768;2022-10-16T14:46:56;16.60;70.20
53748;DHT22;39655;53.210;5.768;2022-10-16T14:49:23;16.40;70.60
53748;DHT22;39655;53.210;5.768;2022-10-16T14:51:49;16.30;71.00
53748;DHT22;39655;53.210;5.768;2022-10-16T14:54:17;16.20;71.80
53748;DHT22;39655;53.210;5.768;2022-10-16T14:56:53;16.20;72.40
53748;DHT22;39655;53.210;5.768;2022-10-16T14:59:28;16.10;72.70
53748;DHT22;39655;53.210;5.768;2022-10-16T15:01:55;16.10;72.80
53748;DHT22;39655;53.210;5.768;2022-10-16T15:04:21;16.10;73.30
53748;DHT22;39655;53.210;5.768;2022-10-16T15:06:47;16.10;73.90
53748;DHT22;39655;53.210;5.768;2022-10-16T15:09:13;16.10;73.80
53748;DHT22;39655;53.210;5.768;2022-10-16T15:11:38;16.10;74.30
53748;DHT22;39655;53.210;5.768;2022-10-16T15:14:04;16.10;74.10
53748;DHT22;39655;53.210;5.768;2022-10-16T15:16:31;16.10;74.60
53748;DHT22;39655;53.210;5.768;2022-10-16T15:18:56;16.10;74.90
53748;DHT22;39655;53.210;5.768;2022-10-16T15:21:29;16.00;74.80
53748;DHT22;39655;53.210;5.768;2022-10-16T15:23:56;16.10;75.10
53748;DHT22;39655;53.210;5.768;2022-10-16T15:26:26;16.10;75.40
53748;DHT22;39655;53.210;5.768;2022-10-16T15:28:52;16.00;75.10
53748;DHT22;39655;53.210;5.768;2022-10-16T15:31:19;16.00;75.30
53748;DHT22;39655;53.210;5.768;2022-10-16T15:33:45;16.00;75.40
53748;DHT22;39655;53.210;5.768;2022-10-16T15:36:16;16.00;75.70
53748;DHT22;39655;53.210;5.768;2022-10-16T15:38:42;15.90;75.90
53748;DHT22;39655;53.210;5.768;2022-10-16T15:41:08;15.90;76.00
53748;DHT22;39655;53.210;5.768;2022-10-16T15:43:34;15.80;76.10
53748;DHT22;39655;53.210;5.768;2022-10-16T15:46:03;15.70;76.40
53748;DHT22;39655;53.210;5.768;2022-10-16T15:48:29;15.70;76.10
53748;DHT22;39655;53.210;5.768;2022-10-16T15:50:55;15.60;76.40
53748;DHT22;39655;53.210;5.768;2022-10-16T15:53:21;15.60;76.70
53748;DHT22;39655;53.210;5.768;2022-10-16T15:55:46;15.60;76.80
53748;DHT22;39655;53.210;5.768;2022-10-16T15:58:12;15.60;76.80
53748;DHT22;39655;53.210;5.768;2022-10-16T16:00:38;15.50;77.30
53748;DHT22;39655;53.210;5.768;2022-10-16T16:03:03;15.50;77.60
53748;DHT22;39655;53.210;5.768;2022-10-16T16:05:29;15.40;77.50
53748;DHT22;39655;53.210;5.768;2022-10-16T16:07:55;15.40;77.80
53748;DHT22;39655;53.210;5.768;2022-10-16T16:10:22;15.30;78.00
53748;DHT22;39655;53.210;5.768;2022-10-16T16:12:48;15.30;78.20
53748;DHT22;39655;53.210;5.768;2022-10-16T16:15:22;15.30;78.40
53748;DHT22;39655;53.210;5.768;2022-10-16T16:17:48;15.20;78.70
53748;DHT22;39655;53.210;5.768;2022-10-16T16:20:14;15.20;79.50
53748;DHT22;39655;53.210;5.768;2022-10-16T16:22:40;15.10;80.10
53748;DHT22;39655;53.210;5.768;2022-10-16T16:25:06;15.10;80.50
53748;DHT22;39655;53.210;5.768;2022-10-16T16:27:31;15.00;80.70
53748;DHT22;39655;53.210;5.768;2022-10-16T16:30:05;14.90;80.80
53748;DHT22;39655;53.210;5.768;2022-10-16T16:32:33;14.90;81.00
53748;DHT22;39655;53.210;5.768;2022-10-16T16:34:59;14.80;81.20
53748;DHT22;39655;53.210;5.768;2022-10-16T16:37:24;14.70;81.40
53748;DHT22;39655;53.210;5.768;2022-10-16T16:39:50;14.70;81.70
53748;DHT22;39655;53.210;5.768;2022-10-16T16:42:16;14.60;81.80
53748;DHT22;39655;53.210;5.768;2022-10-16T16:44:42;14.60;82.00
53748;DHT22;39655;53.210;5.768;2022-10-16T16:47:09;14.60;82.20
53748;DHT22;39655;53.210;5.768;2022-10-16T16:49:35;14.50;82.30
53748;DHT22;39655;53.210;5.768;2022-10-16T16:52:03;14.40;82.30
53748;DHT22;39655;53.210;5.768;2022-10-16T16:54:29;14.40;82.50
53748;DHT22;39655;53.210;5.768;2022-10-16T16:56:55;14.30;82.70
53748;DHT22;39655;53.210;5.768;2022-10-16T16:59:21;14.30;82.80
53748;DHT22;39655;53.210;5.768;2022-10-16T17:01:47;14.20;83.10
53748;DHT22;39655;53.210;5.768;2022-10-16T17:04:13;14.20;83.30
53748;DHT22;39655;53.210;5.768;2022-10-16T17:06:40;14.10;83.40
53748;DHT22;39655;53.210;5.768;2022-10-16T17:09:06;14.10;83.60
53748;DHT22;39655;53.210;5.768;2022-10-16T17:11:33;14.10;83.70
53748;DHT22;39655;53.210;5.768;2022-10-16T17:13:59;14.10;83.90
53748;DHT22;39655;53.210;5.768;2022-10-16T17:16:34;14.00;84.00
53748;DHT22;39655;53.210;5.768;2022-10-16T17:19:02;14.00;84.10
53748;DHT22;39655;53.210;5.768;2022-10-16T17:21:28;14.00;84.30
53748;DHT22;39655;53.210;5.768;2022-10-16T17:23:55;13.90;84.40
53748;DHT22;39655;53.210;5.768;2022-10-16T17:26:20;13.90;84.50
53748;DHT22;39655;53.210;5.768;2022-10-16T17:28:51;13.90;84.60
53748;DHT22;39655;53.210;5.768;2022-10-16T17:31:20;13.80;84.70
53748;DHT22;39655;53.210;5.768;2022-10-16T17:33:46;13.80;84.90
53748;DHT22;39655;53.210;5.768;2022-10-16T17:36:12;13.80;85.00
53748;DHT22;39655;53.210;5.768;2022-10-16T17:38:42;13.70;85.10
53748;DHT22;39655;53.210;5.768;2022-10-16T17:41:12;13.70;85.10
53748;DHT22;39655;53.210;5.768;2022-10-16T17:43:39;13.70;85.20